Time;durP1;ratioP1;P1;durP2;ratioP2;P2;SDS_P1;SDS_P2;PMS_P1;PMS_P2;Temp;Humidity;BMP_temperature;BMP_pressure;BME280_temperature;BME280_humidity;BME280_pressure;Samples;Min_cycle;Max_cycle;Signal;HPM_P1;HPM_P2
2022/03/18 00:01:58;;;;;;;7.33;6.63;;;;;;;18.45;43.03;98807.84;4924002;29;20280;-85
2022/03/18 00:04:25;;;;;;;7.20;6.50;;;;;;;18.58;42.81;98838.34;4917056;29;20197;-85
2022/03/18 00:06:52;;;;;;;7.20;6.60;;;;;;;18.67;43.00;98856.75;4917414;29;20209;-86
2022/03/18 00:09:19;;;;;;;7.30;6.60;;;;;;;18.55;42.84;98825.44;4901008;29;20212;-85
2022/03/18 00:11:46;;;;;;;7.70;7.00;;;;;;;18.51;43.07;98826.03;4916715;29;20208;-86
2022/03/18 00:14:14;;;;;;;7.67;6.97;;;;;;;18.55;43.04;98834.72;4933000;29;20578;-85
2022/03/18 00:16:40;;;;;;;7.80;7.10;;;;;;;18.50;42.91;98828.50;4892203;29;20198;-86
2022/03/18 00:19:07;;;;;;;8.40;7.60;;;;;;;18.60;42.69;98852.06;4901035;29;20196;-86
2022/03/18 00:21:34;;;;;;;8.33;7.53;;;;;;;18.78;43.05;98873.56;4916586;29;20205;-86
2022/03/18 00:24:01;;;;;;;8.13;7.33;;;;;;;18.66;42.96;98867.72;4901616;29;20232;-85
2022/03/18 00:26:28;;;;;;;7.93;7.20;;;;;;;18.45;42.88;98824.78;4897722;29;20777;-86
2022/03/18 00:28:55;;;;;;;8.07;7.37;;;;;;;18.56;42.89;98845.00;4885163;29;20671;-86
2022/03/18 00:31:21;;;;;;;7.87;7.17;;;;;;;18.38;43.10;98820.09;4923113;29;20280;-85
2022/03/18 00:33:48;;;;;;;8.50;7.70;;;;;;;18.49;43.05;98842.88;4901440;29;20684;-86
2022/03/18 00:36:15;;;;;;;7.97;7.27;;;;;;;18.59;43.19;98857.94;4901412;29;20248;-86
2022/03/18 00:38:41;;;;;;;7.90;7.20;;;;;;;18.47;43.15;98836.81;4901236;29;20209;-85
2022/03/18 00:41:08;;;;;;;7.10;6.50;;;;;;;18.74;43.11;98883.47;4903034;29;20213;-85
2022/03/18 00:43:34;;;;;;;7.90;7.20;;;;;;;18.71;43.06;98885.84;4904514;29;20288;-85
2022/03/18 00:46:01;;;;;;;7.40;6.70;;;;;;;18.63;42.98;98867.53;4936045;29;20224;-85
2022/03/18 00:53:58;;;;;;;7.00;6.40;;;;;;;18.65;43.19;98867.63;4923417;29;20223;-85
2022/03/18 00:56:25;;;;;;;8.33;7.57;;;;;;;18.57;42.68;98856.97;4936124;29;20252;-85
2022/03/18 00:58:51;;;;;;;7.87;7.07;;;;;;;18.63;43.29;98862.44;4920127;29;20280;-85
2022/03/18 01:01:18;;;;;;;7.83;7.13;;;;;;;18.11;43.08;98779.41;4904570;29;20299;-85
2022/03/18 01:03:45;;;;;;;8.17;7.37;;;;;;;18.72;42.75;98879.94;4937097;29;20675;-85
2022/03/18 01:06:12;;;;;;;7.23;6.63;;;;;;;18.38;43.02;98820.97;4935839;29;20228;-85
2022/03/18 01:08:38;;;;;;;7.73;7.03;;;;;;;18.49;42.94;98842.00;4935799;29;20269;-85
2022/03/18 01:11:05;;;;;;;7.30;6.70;;;;;;;18.57;43.01;98856.09;4936018;29;20644;-86
2022/03/18 01:13:31;;;;;;;7.27;6.57;;;;;;;18.51;43.16;98836.22;4916670;29;20213;-85
2022/03/18 01:15:58;;;;;;;7.80;7.03;;;;;;;18.57;43.01;98844.25;4912067;29;20778;-86
2022/03/18 01:18:25;;;;;;;7.13;6.50;;;;;;;18.54;42.98;98849.16;4929764;29;20211;-85
2022/03/18 01:20:51;;;;;;;7.97;6.73;;;;;;;18.52;42.68;98842.19;4920975;29;20233;-85
2022/03/18 02:14:36;;;;;;;7.13;6.50;;;;;;;18.92;43.12;98925.34;5461709;23;20379;-85
2022/03/18 02:17:06;;;;;;;7.03;6.33;;;;;;;18.59;43.02;98868.13;4913861;29;20202;-85
2022/03/18 02:19:34;;;;;;;7.63;6.93;;;;;;;18.94;42.89;98927.19;4930928;29;20206;-85
2022/03/18 02:22:00;;;;;;;7.57;6.87;;;;;;;18.47;43.04;98852.06;4918306;29;20228;-85
2022/03/18 02:24:27;;;;;;;7.20;6.60;;;;;;;18.75;42.85;98895.41;4903246;29;20205;-86
2022/03/18 02:26:54;;;;;;;6.67;6.07;;;;;;;18.81;42.61;98896.69;4902818;29;20241;-85
2022/03/18 02:29:22;;;;;;;6.83;6.23;;;;;;;18.56;42.87;98850.09;4919033;29;20292;-85
2022/03/18 02:31:48;;;;;;;6.87;6.27;;;;;;;18.81;42.27;98893.25;4887366;29;20424;-85
2022/03/18 02:34:17;;;;;;;7.87;7.17;;;;;;;18.78;42.67;98891.41;4904068;29;20212;-85
2022/03/18 02:36:44;;;;;;;7.30;6.60;;;;;;;18.55;42.61;98843.25;4887179;29;20263;-85
2022/03/18 02:39:10;;;;;;;7.60;6.90;;;;;;;18.20;42.56;98796.88;4900781;29;20743;-85
2022/03/18 02:41:37;;;;;;;7.93;7.23;;;;;;;18.87;42.62;98904.69;4907794;29;20640;-85
2022/03/18 02:44:04;;;;;;;7.70;7.00;;;;;;;18.95;42.82;98925.56;4907523;29;20233;-85
2022/03/18 02:46:32;;;;;;;8.07;7.27;;;;;;;18.77;42.88;98894.72;4902680;29;20225;-84
2022/03/18 02:49:00;;;;;;;7.97;7.17;;;;;;;18.69;42.71;98882.31;4903460;29;20729;-85
2022/03/18 02:51:27;;;;;;;8.13;7.33;;;;;;;17.89;42.89;98748.28;4902407;29;20192;-85
2022/03/18 02:53:54;;;;;;;8.33;7.53;;;;;;;18.70;42.49;98889.16;4887828;29;20205;-85
2022/03/18 02:56:21;;;;;;;8.83;8.03;;;;;;;18.77;42.67;98898.94;4902996;29;20342;-85
2022/03/18 02:58:48;;;;;;;8.07;7.33;;;;;;;18.73;42.79;98897.88;4887138;29;20201;-85
2022/03/18 03:01:14;;;;;;;8.43;7.63;;;;;;;18.69;42.52;98884.84;4934399;29;20642;-85
2022/03/18 03:03:41;;;;;;;7.97;7.17;;;;;;;18.71;42.80;98901.13;4887376;29;20200;-85
2022/03/18 03:08:53;;;;;;;8.13;7.33;;;;;;;18.69;42.99;98907.75;4907237;29;20635;-85
2022/03/18 03:11:22;;;;;;;8.30;7.50;;;;;;;18.56;43.07;98880.66;4886883;29;20201;-85
2022/03/18 03:13:50;;;;;;;8.53;7.73;;;;;;;18.48;42.98;98875.88;4887291;29;20511;-84
2022/03/18 03:16:18;;;;;;;8.20;7.50;;;;;;;18.58;42.71;98896.91;4886907;29;20680;-85
2022/03/18 03:18:46;;;;;;;7.90;7.20;;;;;;;18.88;42.88;98952.31;4887087;29;20322;-85
2022/03/18 03:21:13;;;;;;;7.13;6.53;;;;;;;18.62;42.74;98905.63;4901957;29;20256;-85
2022/03/18 03:23:39;;;;;;;7.73;7.03;;;;;;;18.88;42.71;98961.59;4886939;29;20236;-86
2022/03/18 03:26:06;;;;;;;7.93;6.80;;;;;;;17.79;42.79;98771.41;4934196;29;20227;-85
2022/03/18 03:28:33;;;;;;;7.47;6.80;;;;;;;18.69;42.85;98928.13;4917702;29;20296;-86
2022/03/18 03:31:00;;;;;;;8.20;7.40;;;;;;;18.60;43.38;98919.94;4901163;29;20228;-85
2022/03/18 04:05:55;;;;;;;7.87;7.13;;;;;;;18.56;42.83;98934.13;4885221;29;20682;-84
2022/03/18 04:08:22;;;;;;;8.13;7.33;;;;;;;18.56;42.92;98931.56;4856967;29;20226;-84
2022/03/18 04:10:49;;;;;;;8.00;7.30;;;;;;;18.95;42.61;99005.38;4863691;29;20698;-84
2022/03/18 04:13:15;;;;;;;8.50;7.60;;;;;;;18.79;42.62;98983.94;4863936;29;20210;-84
2022/03/18 04:15:42;;;;;;;8.20;7.40;;;;;;;18.67;43.00;98962.81;4856933;29;20214;-84
2022/03/18 04:18:08;;;;;;;7.93;7.23;;;;;;;18.91;42.60;99008.53;4862983;29;20202;-84
2022/03/18 04:20:35;;;;;;;8.77;7.87;;;;;;;18.88;42.77;99004.91;4863811;29;20214;-84
2022/03/18 04:23:02;;;;;;;8.33;7.53;;;;;;;18.96;42.91;99022.44;4862145;29;20210;-85
2022/03/18 04:25:30;;;;;;;7.87;7.17;;;;;;;17.95;43.00;98855.50;4873373;29;20227;-85
2022/03/18 04:27:58;;;;;;;8.13;7.43;;;;;;;18.77;42.65;98991.50;4862086;29;20292;-84
2022/03/18 04:30:25;;;;;;;8.00;7.20;;;;;;;18.92;43.25;99029.81;4848450;29;20238;-84
2022/03/18 04:32:51;;;;;;;7.70;7.00;;;;;;;18.80;43.04;99001.00;4895613;29;20238;-84
2022/03/18 04:35:18;;;;;;;8.33;7.53;;;;;;;18.66;42.96;98987.41;4846662;29;20230;-84
2022/03/18 04:37:45;;;;;;;7.60;6.90;;;;;;;18.88;42.85;99030.38;4830929;29;20641;-84
2022/03/18 04:40:12;;;;;;;7.97;7.27;;;;;;;18.69;43.04;98996.91;4845427;29;20298;-84
2022/03/18 04:42:40;;;;;;;8.10;7.30;;;;;;;18.70;42.98;99002.09;4845109;29;20596;-85
2022/03/18 04:45:09;;;;;;;7.20;6.60;;;;;;;18.93;43.03;99042.66;4855510;29;20309;-84
2022/03/18 04:47:36;;;;;;;8.27;7.47;;;;;;;18.73;42.76;99009.03;4864788;29;20293;-84
2022/03/18 04:50:03;;;;;;;8.10;7.30;;;;;;;18.75;42.84;99016.00;4877065;29;20660;-84
2022/03/18 04:52:30;;;;;;;7.80;7.10;;;;;;;18.70;42.87;99014.81;4848191;29;20325;-84
2022/03/18 04:54:57;;;;;;;7.20;6.50;;;;;;;18.55;43.14;98990.94;4844997;29;20735;-84
2022/03/18 04:57:24;;;;;;;7.57;6.87;;;;;;;18.68;43.24;99011.28;4869864;29;20285;-84
2022/03/18 04:59:52;;;;;;;7.87;7.17;;;;;;;18.78;42.95;99039.13;4845168;29;20275;-84
2022/03/18 05:02:20;;;;;;;7.17;6.53;;;;;;;18.62;42.83;99015.97;4849168;29;20203;-84
2022/03/18 05:04:48;;;;;;;7.70;7.00;;;;;;;18.77;43.00;99044.97;4849874;29;20234;-84
2022/03/18 05:07:15;;;;;;;8.03;7.27;;;;;;;18.78;43.07;99048.41;4860318;29;20283;-84
2022/03/18 05:09:42;;;;;;;8.43;7.63;;;;;;;18.38;43.06;98980.47;4852800;29;20640;-84
2022/03/18 05:12:10;;;;;;;8.37;7.57;;;;;;;18.54;42.96;99016.28;4850645;29;20238;-84
2022/03/18 05:14:38;;;;;;;8.37;7.60;;;;;;;18.65;43.10;99043.34;4844827;29;20715;-84
2022/03/18 05:17:05;;;;;;;8.77;7.97;;;;;;;18.25;42.96;98986.38;4847700;29;20255;-84
2022/03/18 05:19:31;;;;;;;8.90;8.00;;;;;;;18.68;42.80;99057.13;4864584;29;20256;-84
2022/03/18 05:21:58;;;;;;;8.37;7.57;;;;;;;18.68;43.08;99056.25;4859981;29;20258;-83
2022/03/18 05:24:27;;;;;;;8.37;7.57;;;;;;;18.38;42.90;99014.41;4872048;29;20236;-84
2022/03/18 05:26:54;;;;;;;8.90;8.00;;;;;;;18.74;43.03;99082.97;4851842;29;20674;-84
2022/03/18 05:29:21;;;;;;;8.87;8.07;;;;;;;18.76;43.13;99083.97;4848181;29;20572;-84
2022/03/18 05:31:48;;;;;;;8.90;8.07;;;;;;;18.75;42.79;99083.88;4865148;29;20210;-84
2022/03/18 05:34:14;;;;;;;9.27;8.37;;;;;;;18.69;43.15;99075.84;4836007;29;20263;-84
2022/03/18 05:36:41;;;;;;;9.63;8.73;;;;;;;18.55;43.14;99058.78;4838672;29;20202;-84
2022/03/18 05:39:08;;;;;;;8.90;8.00;;;;;;;18.65;43.18;99082.38;4844810;29;20231;-84
2022/03/18 05:41:35;;;;;;;9.60;8.70;;;;;;;18.40;43.08;99032.31;4862489;29;20231;-84
2022/03/18 05:44:01;;;;;;;8.90;8.10;;;;;;;18.73;43.17;99099.06;4845116;29;20230;-83
2022/03/18 05:46:29;;;;;;;9.63;8.70;;;;;;;18.78;42.95;99109.53;4891831;29;20742;-84
2022/03/18 05:48:56;;;;;;;9.27;8.37;;;;;;;18.36;43.42;99040.50;4885578;29;20290;-84
2022/03/18 05:51:22;;;;;;;9.73;8.73;;;;;;;18.48;43.06;99070.25;4848570;29;20859;-83
2022/03/18 05:53:49;;;;;;;8.73;7.93;;;;;;;18.61;43.20;99087.19;4850695;29;20203;-84
2022/03/18 05:59:01;;;;;;;9.57;8.57;;;;;;;18.53;43.28;99084.13;4869273;29;20226;-83
2022/03/18 06:01:27;;;;;;;9.93;8.93;;;;;;;18.45;43.08;99072.59;4842375;29;20295;-83
2022/03/18 06:03:54;;;;;;;9.20;8.30;;;;;;;18.62;42.91;99097.47;4851781;29;20213;-84
2022/03/18 06:06:21;;;;;;;9.50;8.60;;;;;;;18.59;42.97;99093.88;4848682;29;20323;-84
2022/03/18 06:11:51;;;;;;;8.67;7.87;;;;;;;18.17;43.07;99020.59;4874528;29;20199;-84
2022/03/18 06:14:19;;;;;;;9.00;8.13;;;;;;;18.63;43.32;99118.72;4886850;29;20203;-88
2022/03/18 06:16:47;;;;;;;8.57;7.77;;;;;;;18.43;42.90;99073.25;4858127;29;20211;-85
2022/03/18 06:19:15;;;;;;;9.43;8.53;;;;;;;18.71;43.54;99122.66;4876650;29;20665;-84
2022/03/18 06:21:43;;;;;;;9.07;8.27;;;;;;;18.65;43.44;99118.03;4874430;29;20232;-83
2022/03/18 06:24:09;;;;;;;9.13;8.23;;;;;;;18.63;43.35;99118.72;4857316;29;20803;-84
2022/03/18 06:26:36;;;;;;;8.57;7.67;;;;;;;18.89;43.05;99165.50;4863190;29;20258;-84
2022/03/18 06:29:04;;;;;;;9.43;8.53;;;;;;;18.67;43.00;99130.88;4881359;29;20266;-84
2022/03/18 06:31:31;;;;;;;13.10;11.70;;;;;;;18.36;42.88;99078.69;4840534;29;20259;-84
2022/03/18 06:33:58;;;;;;;14.83;13.20;;;;;;;18.26;42.77;99066.16;4863338;29;20211;-83
2022/03/18 06:36:25;;;;;;;17.50;15.70;;;;;;;18.77;42.22;99158.72;4850938;29;20276;-84
2022/03/18 06:38:51;;;;;;;17.67;15.73;;;;;;;18.73;41.56;99150.00;4832451;29;20259;-85
2022/03/18 06:41:19;;;;;;;19.03;16.93;;;;;;;18.67;42.25;99139.41;4878319;29;20255;-84
2022/03/18 06:43:47;;;;;;;18.60;16.60;;;;;;;18.63;41.93;99136.56;4858020;29;20207;-83
2022/03/18 06:46:14;;;;;;;18.63;16.67;;;;;;;18.67;42.09;99156.34;4865793;29;20660;-85
2022/03/18 06:48:41;;;;;;;18.53;16.57;;;;;;;18.75;42.20;99173.03;4850417;29;20264;-84
2022/03/18 06:51:08;;;;;;;17.83;15.90;;;;;;;18.63;42.22;99157.81;4849896;29;20289;-84
2022/03/18 06:53:35;;;;;;;18.67;16.77;;;;;;;18.81;41.88;99191.25;4856704;29;20238;-85
2022/03/18 06:56:01;;;;;;;16.37;14.67;;;;;;;18.61;42.22;99155.94;4847943;29;20713;-84
2022/03/18 06:58:28;;;;;;;17.83;15.60;;;;;;;18.87;42.33;99202.75;4842908;29;20289;-85
2022/03/18 07:00:54;;;;;;;15.50;13.90;;;;;;;18.74;42.45;99192.50;4865477;29;20296;-86
2022/03/18 07:03:21;;;;;;;21.97;17.57;;;;;;;18.46;42.26;99143.09;4840280;29;20214;-86
2022/03/18 07:05:50;;;;;;;25.77;20.57;;;;;;;18.63;41.92;99167.13;4845293;29;20230;-85
2022/03/18 07:08:17;;;;;;;22.93;19.60;;;;;;;18.68;41.88;99179.34;4855455;29;20266;-84
2022/03/18 07:10:43;;;;;;;24.53;19.30;;;;;;;18.48;41.83;99153.38;4851453;29;20234;-85
2022/03/18 07:13:10;;;;;;;22.27;19.00;;;;;;;18.67;41.88;99190.34;4844822;29;20230;-84
2022/03/18 07:15:36;;;;;;;21.80;18.33;;;;;;;18.21;42.10;99115.06;4857396;29;20218;-85
2022/03/18 07:18:04;;;;;;;19.63;17.07;;;;;;;18.65;42.31;99193.56;4864696;29;20289;-84
2022/03/18 07:20:33;;;;;;;20.17;17.70;;;;;;;18.64;42.20;99197.78;4847805;29;20238;-85
2022/03/18 07:23:10;;;;;;;18.00;16.10;;;;;;;18.66;42.58;99195.34;4863096;29;20835;-84
2022/03/18 07:25:38;;;;;;;18.30;16.27;;;;;;;18.68;42.44;99209.06;4861775;29;20219;-84
2022/03/18 07:28:05;;;;;;;18.83;15.77;;;;;;;18.59;42.58;99191.47;4830532;29;20298;-84
2022/03/18 07:30:32;;;;;;;17.60;15.70;;;;;;;18.50;42.86;99185.78;4838849;29;20278;-85
2022/03/18 07:32:59;;;;;;;16.63;14.93;;;;;;;18.38;42.77;99153.53;4855392;29;20286;-84
2022/03/18 07:35:26;;;;;;;16.00;14.30;;;;;;;18.63;42.83;99212.94;4842966;29;20263;-84
2022/03/18 07:37:53;;;;;;;16.03;14.33;;;;;;;18.44;42.82;99179.41;4828416;29;20251;-86
2022/03/18 07:40:19;;;;;;;16.37;14.67;;;;;;;18.51;42.77;99192.66;4854851;29;20267;-85
2022/03/18 07:42:47;;;;;;;17.57;15.70;;;;;;;18.79;42.66;99236.09;4830691;29;20285;-85
2022/03/18 07:45:27;;;;;;;16.30;14.60;;;;;;;18.63;42.59;99212.94;4851043;29;20284;-84
2022/03/18 07:47:55;;;;;;;17.60;15.00;;;;;;;18.69;42.77;99227.00;4848608;29;20222;-85
2022/03/18 07:50:22;;;;;;;18.60;15.43;;;;;;;17.93;42.94;99092.75;4835022;29;20289;-84
2022/03/18 07:52:53;;;;;;;17.20;14.63;;;;;;;18.20;42.85;99145.50;4835233;29;20234;-85
2022/03/18 07:55:22;;;;;;;16.20;14.17;;;;;;;18.51;42.95;99192.66;4858585;29;20305;-84
2022/03/18 07:57:49;;;;;;;17.10;14.90;;;;;;;18.55;42.98;99204.81;4835316;29;20273;-84
2022/03/18 08:00:16;;;;;;;16.20;14.50;;;;;;;18.54;42.82;99214.88;4839982;29;20290;-84
2022/03/18 08:02:43;;;;;;;15.90;14.30;;;;;;;18.65;42.88;99234.31;4829542;29;20232;-84
2022/03/18 08:05:10;;;;;;;15.73;13.70;;;;;;;18.65;42.87;99237.72;4835870;29;20226;-84
2022/03/18 08:07:37;;;;;;;15.03;13.43;;;;;;;18.70;42.89;99246.56;4835449;29;20302;-83
2022/03/18 08:10:04;;;;;;;15.33;13.73;;;;;;;18.54;42.82;99214.88;4844679;29;20236;-85
2022/03/18 08:12:31;;;;;;;14.97;13.43;;;;;;;18.43;42.74;99203.06;4848403;29;20290;-84
2022/03/18 08:17:28;;;;;;;16.30;13.90;;;;;;;18.07;42.97;99141.25;4917856;29;20256;-81
2022/03/18 08:19:54;;;;;;;15.10;13.50;;;;;;;16.33;43.09;98844.31;4886550;29;20238;-81
2022/03/18 08:22:21;;;;;;;15.90;14.20;;;;;;;16.71;42.84;98928.25;4879277;29;20296;-80
2022/03/18 08:24:48;;;;;;;13.87;12.47;;;;;;;17.16;42.91;98997.47;4893507;29;20240;-81
2022/03/18 08:27:15;;;;;;;18.37;14.00;;;;;;;17.47;42.67;99075.97;4895752;29;20307;-81
2022/03/18 08:29:42;;;;;;;13.97;12.57;;;;;;;18.48;43.01;99229.75;4892884;29;20201;-82
2022/03/18 08:32:13;;;;;;;14.97;13.23;;;;;;;18.13;42.86;99184.94;4886772;29;20251;-81
2022/03/18 08:34:40;;;;;;;14.10;12.70;;;;;;;17.58;43.00;99097.94;4867695;29;20297;-81
2022/03/18 08:37:07;;;;;;;13.90;12.50;;;;;;;16.51;42.89;98875.19;4881113;29;20305;-81
2022/03/18 08:39:34;;;;;;;14.10;12.70;;;;;;;18.80;43.31;99293.94;4879053;29;20289;-79
2022/03/18 08:42:00;;;;;;;14.00;12.27;;;;;;;17.33;42.62;99036.00;4898198;29;20262;-81
2022/03/18 08:44:27;;;;;;;13.23;11.23;;;;;;;16.47;43.06;98886.81;4899315;29;20231;-83
2022/03/18 08:46:54;;;;;;;13.30;11.90;;;;;;;18.09;42.79;99198.19;4914663;29;20268;-82
2022/03/18 08:49:20;;;;;;;14.20;12.77;;;;;;;17.56;42.91;99085.91;4885317;29;20672;-82
2022/03/18 08:51:47;;;;;;;13.47;11.93;;;;;;;18.12;42.87;99187.38;4896177;29;20237;-81
2022/03/18 08:54:13;;;;;;;13.03;11.73;;;;;;;13.83;42.94;98418.44;4896753;29;20317;-81
2022/03/18 08:56:40;;;;;;;14.67;13.20;;;;;;;17.60;42.91;99080.25;4880408;29;20309;-80
2022/03/18 08:59:07;;;;;;;12.63;11.43;;;;;;;18.27;42.67;99206.22;4871124;29;20245;-79
2022/03/18 09:01:34;;;;;;;14.27;12.70;;;;;;;16.73;43.10;98937.75;4882636;29;20635;-78
2022/03/18 09:04:01;;;;;;;12.40;11.07;;;;;;;18.24;42.90;99234.00;4884967;29;20257;-80
2022/03/18 09:06:27;;;;;;;12.23;10.93;;;;;;;18.50;42.84;99246.88;4853578;29;20261;-81
2022/03/18 09:08:56;;;;;;;13.83;12.40;;;;;;;17.92;42.92;99150.34;4911035;29;20248;-79
2022/03/18 09:11:23;;;;;;;11.90;10.70;;;;;;;16.66;42.82;98916.88;4884492;29;20233;-81
2022/03/18 09:13:49;;;;;;;12.80;11.50;;;;;;;18.88;42.73;99318.25;4871699;29;20297;-81
2022/03/18 09:16:16;;;;;;;12.53;11.27;;;;;;;18.12;42.92;99180.59;4870833;29;20241;-79
2022/03/18 09:18:59;;;;;;;13.40;12.00;;;;;;;18.40;43.00;99244.50;4892658;29;20209;-81
2022/03/18 09:21:25;;;;;;;13.90;12.27;;;;;;;18.31;42.69;99222.56;4903692;29;20205;-81
2022/03/18 09:23:52;;;;;;;13.63;12.23;;;;;;;18.54;42.47;99266.69;4904223;29;20233;-80
2022/03/18 09:26:18;;;;;;;13.77;12.13;;;;;;;18.17;43.17;99201.25;4888690;29;20226;-80
2022/03/18 09:28:45;;;;;;;13.30;11.83;;;;;;;16.59;42.66;98929.94;4903667;29;20243;-81
2022/03/18 09:31:14;;;;;;;14.90;13.20;;;;;;;16.75;43.09;98960.72;4887271;29;20290;-82
2022/03/18 09:33:43;;;;;;;14.27;12.07;;;;;;;17.82;43.07;99150.50;4872037;29;20340;-80
2022/03/18 09:36:10;;;;;;;13.23;11.83;;;;;;;17.96;42.88;99166.72;4873762;29;20304;-81
2022/03/18 09:38:37;;;;;;;14.20;12.70;;;;;;;15.55;42.62;98750.84;4873024;29;20206;-82
2022/03/18 09:41:06;;;;;;;13.20;11.77;;;;;;;17.51;43.05;99100.84;4886433;29;20534;-81
2022/03/18 09:43:37;;;;;;;13.10;11.70;;;;;;;15.69;42.87;98794.91;4901820;29;20225;-79
2022/03/18 09:46:04;;;;;;;13.03;11.73;;;;;;;18.23;42.98;99233.13;4886086;29;20217;-81
2022/03/18 09:48:51;;;;;;;14.00;12.60;;;;;;;15.27;42.88;98713.22;4874498;29;20292;-81
2022/03/18 09:51:19;;;;;;;12.93;11.63;;;;;;;17.59;43.04;99120.03;4902591;29;20218;-90
2022/03/18 09:54:07;;;;;;;13.53;12.13;;;;;;;18.48;42.67;99281.56;4885123;29;20197;-90
2022/03/18 09:56:41;;;;;;;12.73;11.43;;;;;;;17.87;43.01;99215.28;4891814;29;20217;-89
2022/03/18 09:59:08;;;;;;;13.63;12.23;;;;;;;16.33;43.09;98892.53;4892245;29;20243;-87
2022/03/18 10:01:35;;;;;;;13.40;12.00;;;;;;;18.51;42.94;99298.69;4907885;29;20234;-88
2022/03/18 10:04:10;;;;;;;12.53;11.23;;;;;;;16.68;42.96;98955.97;4865307;29;20301;-87
2022/03/18 10:06:38;;;;;;;13.10;11.63;;;;;;;18.62;43.30;99334.28;4884937;29;20225;-88
2022/03/18 10:09:05;;;;;;;12.70;11.43;;;;;;;17.53;43.18;99137.41;4866289;29;20233;-90
2022/03/18 10:11:34;;;;;;;13.63;12.23;;;;;;;17.85;43.11;99167.63;4871395;29;20213;-89
2022/03/18 10:14:09;;;;;;;12.47;11.23;;;;;;;17.27;43.11;99072.78;4868117;29;20202;-81
2022/03/18 10:16:46;;;;;;;13.30;11.90;;;;;;;14.95;43.09;98652.66;4899212;29;20256;-90
2022/03/18 10:19:17;;;;;;;16.40;12.90;;;;;;;17.77;44.35;99149.28;4887215;29;20237;-88
2022/03/18 10:21:54;;;;;;;13.23;11.83;;;;;;;17.69;43.41;99130.09;4866541;29;20284;-87
2022/03/18 10:24:27;;;;;;;12.20;11.00;;;;;;;16.97;43.30;99002.06;4896649;29;20228;-87
2022/03/18 10:27:16;;;;;;;13.77;11.97;;;;;;;17.08;43.20;99022.34;4884726;29;20281;-84
2022/03/18 10:29:50;;;;;;;12.10;10.90;;;;;;;18.24;43.13;99219.59;4864730;29;20230;-88
2022/03/18 10:32:17;;;;;;;12.17;10.87;;;;;;;18.14;43.00;99199.41;4890904;29;20289;-88
2022/03/18 10:37:39;;;;;;;12.53;11.23;;;;;;;18.92;42.89;99354.22;4889753;29;20687;-84
2022/03/18 10:40:06;;;;;;;13.40;12.00;;;;;;;17.75;42.82;99139.81;4909930;29;20633;-88
2022/03/18 10:42:33;;;;;;;13.70;12.27;;;;;;;16.40;42.81;98900.69;4869259;29;20284;-80
2022/03/18 10:45:00;;;;;;;13.93;12.53;;;;;;;16.65;42.92;98938.88;4917133;29;20234;-78
2022/03/18 10:47:34;;;;;;;13.30;11.90;;;;;;;18.96;42.86;99352.78;4866391;29;20304;-80
2022/03/18 10:50:00;;;;;;;14.80;12.70;;;;;;;18.97;42.65;99342.69;4883077;29;20233;-82
2022/03/18 10:52:28;;;;;;;15.43;12.57;;;;;;;18.78;42.89;99314.22;4915569;29;20580;-77
2022/03/18 10:55:16;;;;;;;13.73;12.23;;;;;;;18.58;42.63;99280.50;4871063;29;20206;-81
2022/03/18 10:57:53;;;;;;;13.57;12.27;;;;;;;16.92;42.63;98996.66;4884945;29;20228;-83
2022/03/18 11:00:25;;;;;;;15.13;12.97;;;;;;;17.72;42.81;99135.41;4889513;29;20293;-80
2022/03/18 11:02:53;;;;;;;12.50;11.20;;;;;;;18.79;42.57;99322.72;4881587;29;20206;-80
2022/03/18 11:05:21;;;;;;;13.03;11.70;;;;;;;18.67;42.55;99304.94;4898653;29;20229;-80
2022/03/18 11:07:50;;;;;;;13.73;12.17;;;;;;;17.04;42.44;99029.66;4881226;29;20741;-83
2022/03/18 11:13:04;;;;;;;13.37;11.97;;;;;;;17.33;42.68;99076.66;4889760;29;20280;-81
2022/03/18 11:15:31;;;;;;;13.03;11.77;;;;;;;18.33;42.67;99252.47;4900038;29;20907;-84
2022/03/18 11:17:59;;;;;;;13.17;11.77;;;;;;;18.55;42.72;99285.38;4905677;29;20202;-82
2022/03/18 11:20:27;;;;;;;14.13;12.60;;;;;;;17.18;42.60;99044.19;4892223;29;20210;-82
2022/03/18 11:22:54;;;;;;;13.53;12.03;;;;;;;18.99;42.55;99363.19;4899766;29;20236;-79
2022/03/18 11:25:21;;;;;;;13.53;12.13;;;;;;;18.98;42.76;99366.53;4889931;29;20734;-81
2022/03/18 11:27:48;;;;;;;12.90;11.60;;;;;;;18.98;42.50;99363.97;4899023;29;20261;-79
2022/03/18 11:30:21;;;;;;;13.97;12.40;;;;;;;18.97;42.52;99375.81;4884506;29;20293;-80
2022/03/18 11:33:06;;;;;;;14.20;12.70;;;;;;;18.96;42.63;99366.41;4886525;29;20233;-82
2022/03/18 11:35:50;;;;;;;13.17;11.60;;;;;;;18.96;42.68;99368.06;4898543;29;20257;-80
2022/03/18 11:38:25;;;;;;;14.73;11.20;;;;;;;18.72;43.37;99323.97;4896208;29;20201;-80
2022/03/18 11:40:58;;;;;;;12.87;11.17;;;;;;;18.94;42.86;99367.06;4884799;29;20660;-80
2022/03/18 11:43:31;;;;;;;12.27;10.47;;;;;;;18.53;42.84;99287.81;4896376;29;20663;-81
2022/03/18 11:46:21;;;;;;;11.17;9.93;;;;;;;18.92;43.03;99359.31;4883291;29;20579;-82
2022/03/18 11:48:54;;;;;;;12.67;9.47;;;;;;;18.91;42.89;99355.00;4899844;29;20258;-81
2022/03/18 11:51:34;;;;;;;11.53;10.33;;;;;;;18.91;42.92;99360.13;4899257;29;20210;-80
2022/03/18 11:54:05;;;;;;;12.33;9.97;;;;;;;18.46;42.85;99282.19;4896915;29;20217;-79
2022/03/18 11:56:50;;;;;;;14.47;10.03;;;;;;;18.69;42.95;99320.31;4887536;29;20221;-81
2022/03/18 11:59:28;;;;;;;12.10;9.87;;;;;;;18.89;42.93;99364.19;4885849;29;20580;-81
2022/03/18 12:01:55;;;;;;;13.77;10.17;;;;;;;18.61;42.86;99307.06;4909090;29;20280;-81
2022/03/18 12:04:34;;;;;;;11.17;9.47;;;;;;;18.89;42.75;99355.69;4896795;29;20698;-80
2022/03/18 12:07:19;;;;;;;11.90;10.00;;;;;;;18.87;43.00;99360.69;4905405;29;20232;-81
2022/03/18 12:09:49;;;;;;;12.00;9.20;;;;;;;18.86;42.62;99369.09;4890141;29;20714;-81
2022/03/18 12:12:24;;;;;;;12.50;9.80;;;;;;;17.42;42.67;99123.06;4913054;29;20616;-81
2022/03/18 12:14:54;;;;;;;12.13;9.73;;;;;;;18.86;43.02;99373.31;4875885;29;20205;-79
2022/03/18 12:17:21;;;;;;;12.93;10.20;;;;;;;15.99;43.06;98876.53;4882341;29;20648;-88
2022/03/18 12:20:00;;;;;;;11.90;9.67;;;;;;;18.82;42.80;99374.75;4867695;29;20205;-88
2022/03/18 12:22:28;;;;;;;11.67;9.90;;;;;;;18.81;42.75;99367.91;4898943;29;20201;-87
2022/03/18 12:24:56;;;;;;;10.93;8.87;;;;;;;18.24;42.84;99270.50;4913952;29;20240;-83
2022/03/18 12:27:36;;;;;;;15.13;10.43;;;;;;;18.78;43.00;99374.44;4895501;29;20257;-89
2022/03/18 12:30:06;;;;;;;15.70;10.97;;;;;;;18.77;43.47;99385.44;4899176;29;20624;-85
2022/03/18 12:32:34;;;;;;;13.50;10.67;;;;;;;18.44;43.35;99297.38;4884304;29;20237;-86
2022/03/18 12:35:04;;;;;;;17.33;10.50;;;;;;;18.72;43.46;99339.25;4859611;29;20240;-86
2022/03/18 12:37:31;;;;;;;17.33;10.23;;;;;;;18.02;43.26;99220.56;4899393;29;20202;-85
2022/03/18 12:40:01;;;;;;;14.53;10.60;;;;;;;18.75;43.39;99347.13;4898051;29;20201;-76
2022/03/18 12:42:28;;;;;;;14.17;9.80;;;;;;;18.75;43.57;99348.75;4914795;29;20720;-78
2022/03/18 12:44:59;;;;;;;15.30;10.63;;;;;;;17.75;43.24;99173.75;4898642;29;20633;-74
2022/03/18 12:47:29;;;;;;;17.90;11.30;;;;;;;18.77;43.37;99357.41;4898481;29;20240;-76
2022/03/18 12:49:56;;;;;;;15.97;10.57;;;;;;;18.78;43.00;99341.34;4913945;29;20236;-74
2022/03/18 12:52:25;;;;;;;18.90;11.13;;;;;;;18.26;43.05;99264.66;4913625;29;20383;-77
2022/03/18 12:55:17;;;;;;;14.20;10.03;;;;;;;18.79;43.28;99348.19;4895423;29;20293;-78
2022/03/18 12:57:43;;;;;;;14.37;11.00;;;;;;;18.79;43.22;99351.63;4883676;29;20236;-73
2022/03/18 13:00:11;;;;;;;14.20;11.10;;;;;;;18.12;42.58;99226.41;4896670;29;20744;-77
2022/03/18 13:02:58;;;;;;;12.97;10.33;;;;;;;18.80;43.24;99338.09;4887333;29;20209;-77
2022/03/18 13:05:28;;;;;;;12.37;9.70;;;;;;;18.82;43.17;99340.75;4881500;29;20217;-76
2022/03/18 13:07:58;;;;;;;19.17;11.40;;;;;;;18.81;42.86;99344.09;4897299;29;20225;-77
2022/03/18 13:10:25;;;;;;;14.27;11.27;;;;;;;18.42;42.72;99267.50;4896930;29;20197;-77
2022/03/18 13:12:51;;;;;;;17.33;11.53;;;;;;;18.83;42.88;99334.91;4882177;29;20285;-85
2022/03/18 13:15:19;;;;;;;17.30;11.63;;;;;;;18.03;42.82;99207.09;4882544;29;20229;-84
2022/03/18 13:17:47;;;;;;;13.80;10.80;;;;;;;18.58;43.14;99306.84;4866941;29;20206;-84